Country
Station

 

Weather  for  Nordholz  -  Germany    Germany

  
1 °C (34 °F)
    
 
 

Current METAR for Nordholz is :

ETMN 211720Z 16006KT 5000 BR BKN008 01/M00 Q1015 GRN

 

This is a report for Nordholz - Germany.
 
The report was made 43 minutes ago, at 17:20 UTC .
The wind was blowing at a speed of 3.1 meters per second (6.9 miles per hour) from south/southeast (160°).
 
The temperature was 1 °C (34 °F)
The temperature felt like -3 °C (28 °F).
 
The atmospheric pressure was 1015 hPa (29.97 inHg).
There were broken clouds at a height of 244 meters (800 feet).
 
The overall visibility was 5.0 kilometers (3.1 miles).
 
Currently mist.

 
 
 
 

Country :   A   B   C   D   E   F   G   H   I   J   K   L   M   N   O   P   Q   R   S   T   U   V   W   Y   Z

 

Site Info  |  Disclaimer  |  Credits  |  Privacy
Contact us  |  Add to favorites
© 2013-2018 METARs - All rights reserved